sensor_id;sensor_type;location;lat;lon;timestamp;pressure;altitude;pressure_sealevel;temperature;humidity
79639;BME280;69114;49.108;8.280;2024-02-21T00:01:34;101384.56;;;6.78;100.00
79639;BME280;69114;49.108;8.280;2024-02-21T00:03:59;101387.59;;;6.77;100.00
79639;BME280;69114;49.108;8.280;2024-02-21T00:06:25;101389.22;;;6.73;100.00
79639;BME280;69114;49.108;8.280;2024-02-21T00:08:51;101382.06;;;6.77;100.00
79639;BME280;69114;49.108;8.280;2024-02-21T00:11:16;101373.19;;;6.75;100.00
79639;BME280;69114;49.108;8.280;2024-02-21T00:13:42;101367.34;;;6.71;100.00
79639;BME280;69114;49.108;8.280;2024-02-21T00:16:07;101357.38;;;6.70;100.00
79639;BME280;69114;49.108;8.280;2024-02-21T00:18:32;101357.03;;;6.66;100.00
79639;BME280;69114;49.108;8.280;2024-02-21T00:20:58;101361.69;;;6.61;100.00
79639;BME280;69114;49.108;8.280;2024-02-21T00:23:23;101354.69;;;6.53;100.00
79639;BME280;69114;49.108;8.280;2024-02-21T00:25:48;101357.41;;;6.48;100.00
79639;BME280;69114;49.108;8.280;2024-02-21T00:28:14;101360.13;;;6.43;100.00
79639;BME280;69114;49.108;8.280;2024-02-21T00:30:39;101355.63;;;6.37;100.00
79639;BME280;69114;49.108;8.280;2024-02-21T00:33:04;101347.28;;;6.32;100.00
79639;BME280;69114;49.108;8.280;2024-02-21T00:35:30;101353.31;;;6.29;100.00
79639;BME280;69114;49.108;8.280;2024-02-21T00:37:55;101349.72;;;6.28;100.00
79639;BME280;69114;49.108;8.280;2024-02-21T00:40:22;101347.22;;;6.27;100.00
79639;BME280;69114;49.108;8.280;2024-02-21T00:42:48;101343.06;;;6.29;100.00
79639;BME280;69114;49.108;8.280;2024-02-21T00:45:14;101334.44;;;6.26;100.00
79639;BME280;69114;49.108;8.280;2024-02-21T00:47:39;101336.91;;;6.22;100.00
79639;BME280;69114;49.108;8.280;2024-02-21T00:50:05;101333.00;;;6.18;100.00
79639;BME280;69114;49.108;8.280;2024-02-21T00:52:32;101331.50;;;6.10;100.00
79639;BME280;69114;49.108;8.280;2024-02-21T00:54:58;101325.28;;;5.98;100.00
79639;BME280;69114;49.108;8.280;2024-02-21T00:57:23;101323.44;;;5.87;100.00
79639;BME280;69114;49.108;8.280;2024-02-21T00:59:49;101305.63;;;5.78;100.00
79639;BME280;69114;49.108;8.280;2024-02-21T01:02:14;101306.97;;;5.75;100.00
79639;BME280;69114;49.108;8.280;2024-02-21T01:04:39;101305.22;;;5.69;100.00
79639;BME280;69114;49.108;8.280;2024-02-21T01:07:05;101307.41;;;5.67;100.00
79639;BME280;69114;49.108;8.280;2024-02-21T01:09:30;101301.56;;;5.63;100.00
79639;BME280;69114;49.108;8.280;2024-02-21T01:11:56;101295.53;;;5.67;100.00
79639;BME280;69114;49.108;8.280;2024-02-21T01:14:21;101298.88;;;5.69;100.00
79639;BME280;69114;49.108;8.280;2024-02-21T01:16:46;101284.16;;;5.63;100.00
79639;BME280;69114;49.108;8.280;2024-02-21T01:19:12;101268.38;;;5.63;100.00
79639;BME280;69114;49.108;8.280;2024-02-21T01:21:37;101276.19;;;5.67;100.00
79639;BME280;69114;49.108;8.280;2024-02-21T01:24:02;101276.69;;;5.63;100.00
79639;BME280;69114;49.108;8.280;2024-02-21T01:26:28;101270.97;;;5.70;100.00
79639;BME280;69114;49.108;8.280;2024-02-21T01:28:53;101260.94;;;5.64;100.00
79639;BME280;69114;49.108;8.280;2024-02-21T01:31:18;101259.00;;;5.64;100.00
79639;BME280;69114;49.108;8.280;2024-02-21T01:33:44;101246.56;;;5.62;100.00
79639;BME280;69114;49.108;8.280;2024-02-21T01:36:09;101266.78;;;5.68;100.00
79639;BME280;69114;49.108;8.280;2024-02-21T01:38:34;101261.81;;;5.70;100.00
79639;BME280;69114;49.108;8.280;2024-02-21T01:41:00;101259.59;;;5.67;100.00
79639;BME280;69114;49.108;8.280;2024-02-21T01:43:26;101271.22;;;5.69;100.00
79639;BME280;69114;49.108;8.280;2024-02-21T01:46:00;101272.06;;;5.69;100.00
79639;BME280;69114;49.108;8.280;2024-02-21T01:48:26;101277.78;;;5.62;100.00
79639;BME280;69114;49.108;8.280;2024-02-21T01:50:53;101272.25;;;5.62;100.00
79639;BME280;69114;49.108;8.280;2024-02-21T01:53:24;101268.94;;;5.60;100.00
79639;BME280;69114;49.108;8.280;2024-02-21T01:55:51;101256.16;;;5.59;100.00
79639;BME280;69114;49.108;8.280;2024-02-21T01:58:16;101262.81;;;5.58;100.00
79639;BME280;69114;49.108;8.280;2024-02-21T02:00:44;101268.66;;;5.62;100.00
79639;BME280;69114;49.108;8.280;2024-02-21T02:03:11;101258.94;;;5.59;100.00
79639;BME280;69114;49.108;8.280;2024-02-21T02:05:46;101245.38;;;5.58;100.00
79639;BME280;69114;49.108;8.280;2024-02-21T02:08:18;101250.16;;;5.62;100.00
79639;BME280;69114;49.108;8.280;2024-02-21T02:10:45;101241.53;;;5.59;100.00
79639;BME280;69114;49.108;8.280;2024-02-21T02:13:11;101230.22;;;5.60;100.00
79639;BME280;69114;49.108;8.280;2024-02-21T02:18:05;101223.06;;;5.64;100.00
79639;BME280;69114;49.108;8.280;2024-02-21T02:20:30;101226.94;;;5.63;100.00
79639;BME280;69114;49.108;8.280;2024-02-21T02:22:56;101230.75;;;5.57;100.00
79639;BME280;69114;49.108;8.280;2024-02-21T02:25:22;101228.53;;;5.59;100.00
79639;BME280;69114;49.108;8.280;2024-02-21T02:27:47;101226.69;;;5.65;100.00
79639;BME280;69114;49.108;8.280;2024-02-21T02:30:13;101220.00;;;5.61;100.00
79639;BME280;69114;49.108;8.280;2024-02-21T02:32:38;101216.09;;;5.57;100.00
79639;BME280;69114;49.108;8.280;2024-02-21T02:35:04;101214.66;;;5.54;100.00
79639;BME280;69114;49.108;8.280;2024-02-21T02:37:29;101211.97;;;5.59;100.00
79639;BME280;69114;49.108;8.280;2024-02-21T02:39:55;101204.13;;;5.51;100.00
79639;BME280;69114;49.108;8.280;2024-02-21T02:42:20;101199.94;;;5.49;100.00
79639;BME280;69114;49.108;8.280;2024-02-21T02:44:45;101200.16;;;5.42;100.00
79639;BME280;69114;49.108;8.280;2024-02-21T02:47:11;101191.81;;;5.37;100.00
79639;BME280;69114;49.108;8.280;2024-02-21T02:49:36;101180.16;;;5.35;100.00
79639;BME280;69114;49.108;8.280;2024-02-21T02:52:01;101186.50;;;5.35;100.00
79639;BME280;69114;49.108;8.280;2024-02-21T02:54:27;101174.63;;;5.35;100.00
79639;BME280;69114;49.108;8.280;2024-02-21T02:56:52;101160.81;;;5.35;100.00
79639;BME280;69114;49.108;8.280;2024-02-21T02:59:18;101164.19;;;5.37;100.00
79639;BME280;69114;49.108;8.280;2024-02-21T03:01:43;101167.50;;;5.39;100.00
79639;BME280;69114;49.108;8.280;2024-02-21T03:04:08;101171.88;;;5.35;100.00
79639;BME280;69114;49.108;8.280;2024-02-21T03:06:35;101151.44;;;5.36;100.00
79639;BME280;69114;49.108;8.280;2024-02-21T03:09:00;101150.38;;;5.37;100.00
79639;BME280;69114;49.108;8.280;2024-02-21T03:11:25;101155.06;;;5.36;100.00
79639;BME280;69114;49.108;8.280;2024-02-21T03:13:55;101163.34;;;5.36;100.00
79639;BME280;69114;49.108;8.280;2024-02-21T03:16:21;101158.94;;;5.40;100.00
79639;BME280;69114;49.108;8.280;2024-02-21T03:18:47;101157.28;;;5.39;100.00
79639;BME280;69114;49.108;8.280;2024-02-21T03:21:12;101154.78;;;5.38;100.00
79639;BME280;69114;49.108;8.280;2024-02-21T03:23:37;101132.69;;;5.38;100.00
79639;BME280;69114;49.108;8.280;2024-02-21T03:26:03;101139.03;;;5.38;100.00
79639;BME280;69114;49.108;8.280;2024-02-21T03:28:28;101135.44;;;5.38;100.00
79639;BME280;69114;49.108;8.280;2024-02-21T03:30:53;101129.31;;;5.36;100.00
79639;BME280;69114;49.108;8.280;2024-02-21T03:33:19;101123.03;;;5.40;100.00
79639;BME280;69114;49.108;8.280;2024-02-21T03:35:46;101116.16;;;5.43;100.00
79639;BME280;69114;49.108;8.280;2024-02-21T03:38:11;101112.56;;;5.43;100.00
79639;BME280;69114;49.108;8.280;2024-02-21T03:40:36;101117.56;;;5.46;100.00
79639;BME280;69114;49.108;8.280;2024-02-21T03:43:02;101115.06;;;5.44;100.00
79639;BME280;69114;49.108;8.280;2024-02-21T03:45:27;101117.50;;;5.40;100.00
79639;BME280;69114;49.108;8.280;2024-02-21T03:47:52;101123.81;;;5.36;100.00
79639;BME280;69114;49.108;8.280;2024-02-21T03:50:18;101129.31;;;5.36;100.00
79639;BME280;69114;49.108;8.280;2024-02-21T03:52:43;101127.59;;;5.30;100.00
79639;BME280;69114;49.108;8.280;2024-02-21T03:55:09;101121.53;;;5.28;100.00
79639;BME280;69114;49.108;8.280;2024-02-21T03:57:34;101120.88;;;5.21;100.00
79639;BME280;69114;49.108;8.280;2024-02-21T03:59:59;101116.88;;;5.11;100.00
79639;BME280;69114;49.108;8.280;2024-02-21T04:02:25;101130.19;;;5.14;100.00
79639;BME280;69114;49.108;8.280;2024-02-21T04:04:50;101131.78;;;5.10;100.00
79639;BME280;69114;49.108;8.280;2024-02-21T04:07:15;101131.47;;;5.07;100.00
79639;BME280;69114;49.108;8.280;2024-02-21T04:09:41;101131.72;;;5.05;100.00
79639;BME280;69114;49.108;8.280;2024-02-21T04:12:08;101129.72;;;5.01;100.00
79639;BME280;69114;49.108;8.280;2024-02-21T04:14:33;101135.19;;;4.96;100.00
79639;BME280;69114;49.108;8.280;2024-02-21T04:16:59;101125.75;;;4.92;100.00
79639;BME280;69114;49.108;8.280;2024-02-21T04:19:25;101124.91;;;4.91;100.00
79639;BME280;69114;49.108;8.280;2024-02-21T04:21:50;101124.41;;;4.94;100.00
79639;BME280;69114;49.108;8.280;2024-02-21T04:24:15;101121.66;;;4.94;100.00
79639;BME280;69114;49.108;8.280;2024-02-21T04:26:41;101126.00;;;4.90;100.00
79639;BME280;69114;49.108;8.280;2024-02-21T04:29:06;101117.13;;;4.88;100.00
79639;BME280;69114;49.108;8.280;2024-02-21T04:31:32;101110.44;;;4.84;100.00
79639;BME280;69114;49.108;8.280;2024-02-21T04:33:58;101108.78;;;4.83;100.00
79639;BME280;69114;49.108;8.280;2024-02-21T04:36:23;101101.59;;;4.82;100.00
79639;BME280;69114;49.108;8.280;2024-02-21T04:38:49;101097.09;;;4.76;100.00
79639;BME280;69114;49.108;8.280;2024-02-21T04:41:15;101100.44;;;4.78;100.00
79639;BME280;69114;49.108;8.280;2024-02-21T04:43:40;101100.09;;;4.74;100.00
79639;BME280;69114;49.108;8.280;2024-02-21T04:46:06;101097.59;;;4.73;100.00
79639;BME280;69114;49.108;8.280;2024-02-21T04:48:31;101082.63;;;4.69;100.00
79639;BME280;69114;49.108;8.280;2024-02-21T04:50:57;101082.91;;;4.67;100.00
79639;BME280;69114;49.108;8.280;2024-02-21T04:53:22;101072.19;;;4.71;100.00
79639;BME280;69114;49.108;8.280;2024-02-21T04:55:47;101058.41;;;4.71;100.00
79639;BME280;69114;49.108;8.280;2024-02-21T04:58:13;101057.88;;;4.74;100.00
79639;BME280;69114;49.108;8.280;2024-02-21T05:00:38;101046.75;;;4.69;100.00
79639;BME280;69114;49.108;8.280;2024-02-21T05:03:04;101044.78;;;4.64;100.00
79639;BME280;69114;49.108;8.280;2024-02-21T05:05:29;101047.78;;;4.62;100.00
79639;BME280;69114;49.108;8.280;2024-02-21T05:07:54;101047.28;;;4.66;100.00
79639;BME280;69114;49.108;8.280;2024-02-21T05:10:20;101047.28;;;4.66;100.00
79639;BME280;69114;49.108;8.280;2024-02-21T05:12:46;101037.25;;;4.59;100.00
79639;BME280;69114;49.108;8.280;2024-02-21T05:15:11;101034.44;;;4.54;100.00
79639;BME280;69114;49.108;8.280;2024-02-21T05:17:36;101043.31;;;4.56;100.00
79639;BME280;69114;49.108;8.280;2024-02-21T05:20:02;101046.63;;;4.58;100.00
79639;BME280;69114;49.108;8.280;2024-02-21T05:22:28;101045.47;;;4.54;100.00
79639;BME280;69114;49.108;8.280;2024-02-21T05:24:53;101052.75;;;4.60;100.00
79639;BME280;69114;49.108;8.280;2024-02-21T05:27:18;101050.75;;;4.56;100.00
79639;BME280;69114;49.108;8.280;2024-02-21T05:29:43;101059.31;;;4.59;100.00
79639;BME280;69114;49.108;8.280;2024-02-21T05:32:09;101046.06;;;4.56;100.00
79639;BME280;69114;49.108;8.280;2024-02-21T05:34:35;101034.38;;;4.49;100.00
79639;BME280;69114;49.108;8.280;2024-02-21T05:37:00;101037.13;;;4.49;100.00
79639;BME280;69114;49.108;8.280;2024-02-21T05:39:26;101029.09;;;4.48;100.00
79639;BME280;69114;49.108;8.280;2024-02-21T05:41:51;101030.50;;;4.50;100.00
79639;BME280;69114;49.108;8.280;2024-02-21T05:44:17;101017.81;;;4.49;100.00
79639;BME280;69114;49.108;8.280;2024-02-21T05:46:43;101010.91;;;4.47;100.00
79639;BME280;69114;49.108;8.280;2024-02-21T05:49:08;101032.09;;;4.46;100.00
79639;BME280;69114;49.108;8.280;2024-02-21T05:51:34;101014.72;;;4.46;100.00
79639;BME280;69114;49.108;8.280;2024-02-21T05:54:00;101018.31;;;4.46;100.00
79639;BME280;69114;49.108;8.280;2024-02-21T05:56:26;101021.59;;;4.43;100.00
79639;BME280;69114;49.108;8.280;2024-02-21T05:58:51;101019.34;;;4.40;100.00
79639;BME280;69114;49.108;8.280;2024-02-21T06:01:16;101019.28;;;4.35;100.00
79639;BME280;69114;49.108;8.280;2024-02-21T06:03:43;101022.09;;;4.40;100.00
79639;BME280;69114;49.108;8.280;2024-02-21T06:06:08;101021.25;;;4.40;100.00
79639;BME280;69114;49.108;8.280;2024-02-21T06:08:33;101012.22;;;4.44;100.00
79639;BME280;69114;49.108;8.280;2024-02-21T06:10:59;101006.44;;;4.46;100.00
79639;BME280;69114;49.108;8.280;2024-02-21T06:13:24;101004.72;;;4.40;100.00
79639;BME280;69114;49.108;8.280;2024-02-21T06:15:50;101002.72;;;4.35;100.00
79639;BME280;69114;49.108;8.280;2024-02-21T06:18:17;100996.38;;;4.34;100.00
79639;BME280;69114;49.108;8.280;2024-02-21T06:20:42;101006.56;;;4.34;100.00
79639;BME280;69114;49.108;8.280;2024-02-21T06:23:08;100996.63;;;4.33;100.00
79639;BME280;69114;49.108;8.280;2024-02-21T06:25:34;101006.56;;;4.34;100.00
79639;BME280;69114;49.108;8.280;2024-02-21T06:27:59;101012.09;;;4.34;100.00
79639;BME280;69114;49.108;8.280;2024-02-21T06:30:24;101010.44;;;4.33;100.00
79639;BME280;69114;49.108;8.280;2024-02-21T06:32:50;101006.91;;;4.38;100.00
79639;BME280;69114;49.108;8.280;2024-02-21T06:35:15;100990.03;;;4.34;100.00
79639;BME280;69114;49.108;8.280;2024-02-21T06:37:40;100983.91;;;4.32;100.00
79639;BME280;69114;49.108;8.280;2024-02-21T06:40:06;100983.91;;;4.32;100.00
79639;BME280;69114;49.108;8.280;2024-02-21T06:42:32;100991.63;;;4.30;100.00
79639;BME280;69114;49.108;8.280;2024-02-21T06:44:57;100979.50;;;4.31;100.00
79639;BME280;69114;49.108;8.280;2024-02-21T06:47:22;100986.09;;;4.30;100.00
79639;BME280;69114;49.108;8.280;2024-02-21T06:49:49;100980.09;;;4.33;100.00
79639;BME280;69114;49.108;8.280;2024-02-21T06:52:17;100987.25;;;4.34;100.00
79639;BME280;69114;49.108;8.280;2024-02-21T06:54:45;100993.88;;;4.33;100.00
79639;BME280;69114;49.108;8.280;2024-02-21T06:57:10;100989.75;;;4.35;100.00
79639;BME280;69114;49.108;8.280;2024-02-21T06:59:35;101000.56;;;4.37;100.00
79639;BME280;69114;49.108;8.280;2024-02-21T07:02:01;100997.28;;;4.40;100.00
79639;BME280;69114;49.108;8.280;2024-02-21T07:04:26;100996.69;;;4.38;100.00
79639;BME280;69114;49.108;8.280;2024-02-21T07:06:52;101001.69;;;4.41;100.00
79639;BME280;69114;49.108;8.280;2024-02-21T07:09:17;100995.41;;;4.46;100.00
79639;BME280;69114;49.108;8.280;2024-02-21T07:11:43;100986.13;;;4.52;100.00
79639;BME280;69114;49.108;8.280;2024-02-21T07:14:08;100991.94;;;4.55;100.00
79639;BME280;69114;49.108;8.280;2024-02-21T07:16:33;100984.59;;;4.61;100.00
79639;BME280;69114;49.108;8.280;2024-02-21T07:18:59;100989.34;;;4.66;100.00
79639;BME280;69114;49.108;8.280;2024-02-21T07:21:24;100987.41;;;4.66;100.00
79639;BME280;69114;49.108;8.280;2024-02-21T07:23:49;100980.81;;;4.67;100.00
79639;BME280;69114;49.108;8.280;2024-02-21T07:26:16;100986.72;;;4.76;100.00
79639;BME280;69114;49.108;8.280;2024-02-21T07:28:41;100977.94;;;4.84;100.00
79639;BME280;69114;49.108;8.280;2024-02-21T07:31:06;100980.19;;;4.87;100.00
79639;BME280;69114;49.108;8.280;2024-02-21T07:33:32;100979.44;;;4.92;100.00
79639;BME280;69114;49.108;8.280;2024-02-21T07:35:57;100973.19;;;5.01;100.00
79639;BME280;69114;49.108;8.280;2024-02-21T07:38:23;100975.50;;;5.09;100.00
79639;BME280;69114;49.108;8.280;2024-02-21T07:40:48;100970.06;;;5.20;100.00
79639;BME280;69114;49.108;8.280;2024-02-21T07:43:13;100987.19;;;5.22;100.00
79639;BME280;69114;49.108;8.280;2024-02-21T07:45:39;100986.38;;;5.21;100.00
79639;BME280;69114;49.108;8.280;2024-02-21T07:48:05;100996.13;;;5.29;100.00
79639;BME280;69114;49.108;8.280;2024-02-21T07:50:31;100987.88;;;5.34;100.00
79639;BME280;69114;49.108;8.280;2024-02-21T07:52:56;100981.84;;;5.37;100.00
79639;BME280;69114;49.108;8.280;2024-02-21T07:55:21;100977.94;;;5.33;100.00
79639;BME280;69114;49.108;8.280;2024-02-21T07:57:46;100975.72;;;5.35;100.00
79639;BME280;69114;49.108;8.280;2024-02-21T08:00:12;100974.44;;;5.43;100.00
79639;BME280;69114;49.108;8.280;2024-02-21T08:02:48;100963.75;;;5.51;100.00
79639;BME280;69114;49.108;8.280;2024-02-21T08:05:13;100963.16;;;5.49;100.00
79639;BME280;69114;49.108;8.280;2024-02-21T08:07:39;100965.41;;;5.52;100.00
79639;BME280;69114;49.108;8.280;2024-02-21T08:10:05;100960.69;;;5.53;100.00
79639;BME280;69114;49.108;8.280;2024-02-21T08:12:33;100967.63;;;5.55;100.00
79639;BME280;69114;49.108;8.280;2024-02-21T08:15:02;100955.44;;;5.51;100.00
79639;BME280;69114;49.108;8.280;2024-02-21T08:17:33;100952.19;;;5.59;100.00
79639;BME280;69114;49.108;8.280;2024-02-21T08:19:58;100944.47;;;5.61;100.00
79639;BME280;69114;49.108;8.280;2024-02-21T08:22:23;100938.41;;;5.64;100.00
79639;BME280;69114;49.108;8.280;2024-02-21T08:24:49;100941.13;;;5.59;100.00
79639;BME280;69114;49.108;8.280;2024-02-21T08:27:14;100940.09;;;5.65;100.00
79639;BME280;69114;49.108;8.280;2024-02-21T08:29:40;100924.69;;;5.75;100.00
79639;BME280;69114;49.108;8.280;2024-02-21T08:32:05;100930.75;;;5.77;100.00
79639;BME280;69114;49.108;8.280;2024-02-21T08:34:30;100933.00;;;5.80;100.00
79639;BME280;69114;49.108;8.280;2024-02-21T08:36:59;100929.16;;;5.86;100.00
79639;BME280;69114;49.108;8.280;2024-02-21T08:39:24;100931.66;;;5.87;100.00
79639;BME280;69114;49.108;8.280;2024-02-21T08:41:49;100932.56;;;5.93;100.00
79639;BME280;69114;49.108;8.280;2024-02-21T08:44:16;100930.41;;;6.00;100.00
79639;BME280;69114;49.108;8.280;2024-02-21T08:46:41;100922.13;;;6.05;100.00
79639;BME280;69114;49.108;8.280;2024-02-21T08:49:06;100928.53;;;6.16;100.00
79639;BME280;69114;49.108;8.280;2024-02-21T08:51:32;100921.09;;;6.22;100.00
79639;BME280;69114;49.108;8.280;2024-02-21T08:53:58;100923.66;;;6.33;100.00
79639;BME280;69114;49.108;8.280;2024-02-21T08:56:23;100919.00;;;6.44;100.00
79639;BME280;69114;49.108;8.280;2024-02-21T08:58:49;100915.13;;;6.45;100.00
79639;BME280;69114;49.108;8.280;2024-02-21T09:01:15;100915.72;;;6.52;100.00
79639;BME280;69114;49.108;8.280;2024-02-21T09:03:40;100908.00;;;6.64;100.00
79639;BME280;69114;49.108;8.280;2024-02-21T09:06:07;100906.34;;;6.68;100.00
79639;BME280;69114;49.108;8.280;2024-02-21T09:08:32;100902.22;;;6.76;100.00
79639;BME280;69114;49.108;8.280;2024-02-21T09:10:59;100900.06;;;6.93;100.00
79639;BME280;69114;49.108;8.280;2024-02-21T09:13:25;100903.97;;;7.03;100.00
79639;BME280;69114;49.108;8.280;2024-02-21T09:15:50;100905.03;;;7.02;100.00
79639;BME280;69114;49.108;8.280;2024-02-21T09:18:16;100885.13;;;7.10;100.00
79639;BME280;69114;49.108;8.280;2024-02-21T09:20:42;100882.63;;;7.13;100.00
79639;BME280;69114;49.108;8.280;2024-02-21T09:23:07;100879.31;;;7.22;100.00
79639;BME280;69114;49.108;8.280;2024-02-21T09:25:32;100871.25;;;7.30;100.00
79639;BME280;69114;49.108;8.280;2024-02-21T09:27:58;100873.47;;;7.38;100.00
79639;BME280;69114;49.108;8.280;2024-02-21T09:30:24;100876.00;;;7.50;100.00
79639;BME280;69114;49.108;8.280;2024-02-21T09:32:49;100875.13;;;7.55;100.00
79639;BME280;69114;49.108;8.280;2024-02-21T09:35:14;100869.84;;;7.63;100.00
79639;BME280;69114;49.108;8.280;2024-02-21T09:37:40;100869.03;;;7.58;100.00
79639;BME280;69114;49.108;8.280;2024-02-21T09:40:06;100865.38;;;7.78;100.00
79639;BME280;69114;49.108;8.280;2024-02-21T09:42:39;100865.63;;;7.91;100.00
79639;BME280;69114;49.108;8.280;2024-02-21T09:45:14;100856.44;;;8.06;100.00
79639;BME280;69114;49.108;8.280;2024-02-21T09:50:21;100851.50;;;7.98;100.00
79639;BME280;69114;49.108;8.280;2024-02-21T09:52:48;100857.59;;;7.90;100.00
79639;BME280;69114;49.108;8.280;2024-02-21T09:55:14;100862.00;;;7.96;100.00
79639;BME280;69114;49.108;8.280;2024-02-21T09:57:40;100839.81;;;8.01;100.00
79639;BME280;69114;49.108;8.280;2024-02-21T10:00:06;100840.31;;;8.13;100.00
79639;BME280;69114;49.108;8.280;2024-02-21T10:02:34;100844.00;;;7.93;100.00
79639;BME280;69114;49.108;8.280;2024-02-21T10:05:00;100845.34;;;8.06;100.00
79639;BME280;69114;49.108;8.280;2024-02-21T10:07:25;100835.28;;;8.20;100.00
79639;BME280;69114;49.108;8.280;2024-02-21T10:10:03;100825.81;;;8.37;100.00
79639;BME280;69114;49.108;8.280;2024-02-21T10:12:29;100818.03;;;8.34;100.00
79639;BME280;69114;49.108;8.280;2024-02-21T10:15:04;100823.03;;;8.42;100.00
79639;BME280;69114;49.108;8.280;2024-02-21T10:17:30;100819.63;;;8.55;100.00
79639;BME280;69114;49.108;8.280;2024-02-21T10:20:06;100811.81;;;8.57;100.00
79639;BME280;69114;49.108;8.280;2024-02-21T10:22:32;100809.00;;;8.62;100.00
79639;BME280;69114;49.108;8.280;2024-02-21T10:25:10;100804.53;;;8.66;100.00
79639;BME280;69114;49.108;8.280;2024-02-21T10:27:39;100802.41;;;8.92;100.00
79639;BME280;69114;49.108;8.280;2024-02-21T10:30:12;100796.34;;;8.85;100.00
79639;BME280;69114;49.108;8.280;2024-02-21T10:32:58;100801.00;;;8.95;100.00
79639;BME280;69114;49.108;8.280;2024-02-21T10:35:33;100794.91;;;8.93;100.00
79639;BME280;69114;49.108;8.280;2024-02-21T10:37:59;100785.63;;;8.74;100.00
79639;BME280;69114;49.108;8.280;2024-02-21T10:40:25;100783.34;;;8.81;100.00
79639;BME280;69114;49.108;8.280;2024-02-21T10:42:59;100774.94;;;8.86;100.00
79639;BME280;69114;49.108;8.280;2024-02-21T10:45:34;100769.91;;;8.93;100.00
79639;BME280;69114;49.108;8.280;2024-02-21T10:48:10;100762.94;;;8.95;100.00
79639;BME280;69114;49.108;8.280;2024-02-21T10:50:45;100768.28;;;9.16;100.00
79639;BME280;69114;49.108;8.280;2024-02-21T10:53:28;100749.19;;;9.38;100.00
79639;BME280;69114;49.108;8.280;2024-02-21T10:56:33;100746.94;;;9.40;100.00
79639;BME280;69114;49.108;8.280;2024-02-21T10:59:06;100752.50;;;9.40;100.00
79639;BME280;69114;49.108;8.280;2024-02-21T11:01:32;100753.88;;;9.14;100.00
79639;BME280;69114;49.108;8.280;2024-02-21T11:04:08;100730.53;;;9.39;100.00
79639;BME280;69114;49.108;8.280;2024-02-21T11:06:38;100733.13;;;9.59;100.00
79639;BME280;69114;49.108;8.280;2024-02-21T11:09:09;100722.00;;;9.59;100.00
79639;BME280;69114;49.108;8.280;2024-02-21T11:11:37;100725.28;;;9.61;100.00
79639;BME280;69114;49.108;8.280;2024-02-21T11:14:10;100722.56;;;9.56;100.00
79639;BME280;69114;49.108;8.280;2024-02-21T11:16:40;100715.22;;;9.65;100.00
79639;BME280;69114;49.108;8.280;2024-02-21T11:19:18;100712.91;;;9.72;100.00
79639;BME280;69114;49.108;8.280;2024-02-21T11:21:44;100703.63;;;9.58;100.00
79639;BME280;69114;49.108;8.280;2024-02-21T11:24:09;100716.31;;;9.45;100.00
79639;BME280;69114;49.108;8.280;2024-02-21T11:26:37;100699.50;;;9.56;100.00
79639;BME280;69114;49.108;8.280;2024-02-21T11:29:03;100703.47;;;9.73;100.00
79639;BME280;69114;49.108;8.280;2024-02-21T11:31:39;100689.84;;;9.48;100.00
79639;BME280;69114;49.108;8.280;2024-02-21T11:34:08;100685.56;;;9.80;100.00
79639;BME280;69114;49.108;8.280;2024-02-21T11:36:34;100678.72;;;9.91;100.00
79639;BME280;69114;49.108;8.280;2024-02-21T11:39:05;100667.44;;;10.01;100.00
79639;BME280;69114;49.108;8.280;2024-02-21T11:41:31;100661.72;;;9.73;100.00
79639;BME280;69114;49.108;8.280;2024-02-21T11:43:57;100659.69;;;9.79;100.00
79639;BME280;69114;49.108;8.280;2024-02-21T11:46:22;100651.97;;;9.95;100.00
79639;BME280;69114;49.108;8.280;2024-02-21T11:48:48;100650.16;;;9.85;100.00
79639;BME280;69114;49.108;8.280;2024-02-21T11:51:25;100644.19;;;9.73;100.00
79639;BME280;69114;49.108;8.280;2024-02-21T11:53:52;100641.84;;;9.61;100.00
79639;BME280;69114;49.108;8.280;2024-02-21T11:56:18;100644.66;;;9.80;100.00
79639;BME280;69114;49.108;8.280;2024-02-21T11:58:43;100637.38;;;9.84;100.00
79639;BME280;69114;49.108;8.280;2024-02-21T12:01:08;100627.59;;;9.87;100.00
79639;BME280;69114;49.108;8.280;2024-02-21T12:03:34;100620.38;;;9.86;100.00
79639;BME280;69114;49.108;8.280;2024-02-21T12:06:01;100617.16;;;9.97;100.00
79639;BME280;69114;49.108;8.280;2024-02-21T12:11:03;100608.16;;;10.19;100.00
79639;BME280;69114;49.108;8.280;2024-02-21T12:13:28;100610.00;;;10.29;98.78
79639;BME280;69114;49.108;8.280;2024-02-21T12:15:53;100599.16;;;10.28;100.00
79639;BME280;69114;49.108;8.280;2024-02-21T12:18:19;100595.06;;;10.39;98.22
79639;BME280;69114;49.108;8.280;2024-02-21T12:20:48;100583.34;;;10.42;99.43
79639;BME280;69114;49.108;8.280;2024-02-21T12:23:13;100588.53;;;10.30;98.29
79639;BME280;69114;49.108;8.280;2024-02-21T12:25:38;100582.69;;;10.12;99.70
79639;BME280;69114;49.108;8.280;2024-02-21T12:28:04;100579.50;;;10.19;100.00
79639;BME280;69114;49.108;8.280;2024-02-21T12:30:30;100570.44;;;10.46;97.78
79639;BME280;69114;49.108;8.280;2024-02-21T12:32:58;100562.53;;;10.67;96.06
79639;BME280;69114;49.108;8.280;2024-02-21T12:35:24;100565.50;;;10.57;96.90
79639;BME280;69114;49.108;8.280;2024-02-21T12:37:49;100561.50;;;10.63;97.15
79639;BME280;69114;49.108;8.280;2024-02-21T12:40:15;100555.41;;;10.61;95.76
79639;BME280;69114;49.108;8.280;2024-02-21T12:42:40;100550.78;;;10.70;95.32
79639;BME280;69114;49.108;8.280;2024-02-21T12:45:06;100545.28;;;10.51;95.34
79639;BME280;69114;49.108;8.280;2024-02-21T12:47:31;100546.84;;;10.57;94.02
79639;BME280;69114;49.108;8.280;2024-02-21T12:49:56;100533.34;;;10.64;94.68
79639;BME280;69114;49.108;8.280;2024-02-21T12:52:22;100529.91;;;10.40;95.32
79639;BME280;69114;49.108;8.280;2024-02-21T12:54:47;100528.03;;;10.49;96.37